Time;durP1;ratioP1;P1;durP2;ratioP2;P2;SDS_P1;SDS_P2;PMS_P1;PMS_P2;Temp;Humidity;BMP_temperature;BMP_pressure;BME280_temperature;BME280_humidity;BME280_pressure;Samples;Min_cycle;Max_cycle;Signal;HPM_P1;HPM_P2
2021/01/15 00:00:24;;;;;;;3.50;2.00;;;9.90;99.90;;;;;;4830006;29;20215;-94
2021/01/15 00:02:55;;;;;;;4.93;1.90;;;9.90;99.90;;;;;;4819515;29;20216;-85
2021/01/15 00:05:26;;;;;;;4.93;1.83;;;9.90;99.90;;;;;;4805392;29;20584;-83
2021/01/15 00:07:56;;;;;;;2.97;1.50;;;9.90;99.90;;;;;;4820293;29;20583;-84
2021/01/15 00:10:26;;;;;;;4.83;1.70;;;9.90;99.90;;;;;;4839049;29;20223;-85
2021/01/15 00:12:55;;;;;;;4.77;2.00;;;9.80;99.90;;;;;;4837483;29;20281;-85
2021/01/15 00:15:25;;;;;;;5.50;2.07;;;9.80;99.90;;;;;;4834778;29;20249;-85
2021/01/15 00:17:54;;;;;;;4.73;1.90;;;9.70;99.90;;;;;;4844065;29;20212;-84
2021/01/15 00:20:25;;;;;;;3.30;1.70;;;9.70;99.90;;;;;;4847427;29;20226;-84
2021/01/15 00:22:55;;;;;;;3.23;1.90;;;9.60;99.90;;;;;;4843721;29;20249;-85
2021/01/15 00:25:25;;;;;;;5.73;2.27;;;9.50;99.90;;;;;;4844130;29;20224;-84
2021/01/15 00:27:55;;;;;;;5.10;2.10;;;9.50;99.90;;;;;;4843899;29;20254;-85
2021/01/15 00:30:25;;;;;;;4.00;2.43;;;9.40;99.90;;;;;;4844568;29;20215;-86
2021/01/15 00:32:55;;;;;;;4.33;1.73;;;9.30;99.90;;;;;;4834183;29;20220;-86
2021/01/15 00:35:27;;;;;;;6.93;2.27;;;9.20;99.90;;;;;;4829759;29;20294;-85
2021/01/15 00:37:57;;;;;;;5.60;2.17;;;9.10;99.90;;;;;;4833903;29;20238;-84
2021/01/15 00:40:29;;;;;;;4.13;2.00;;;9.10;99.90;;;;;;4829511;29;20228;-85
2021/01/15 00:43:00;;;;;;;4.53;1.90;;;9.00;99.90;;;;;;4826094;29;20615;-85
2021/01/15 00:45:31;;;;;;;2.63;1.80;;;8.90;99.90;;;;;;4811000;29;20213;-84
2021/01/15 00:48:02;;;;;;;4.77;1.70;;;8.70;99.90;;;;;;4809295;29;20267;-84
2021/01/15 00:50:33;;;;;;;2.13;1.47;;;8.60;99.90;;;;;;4810042;29;20225;-85
2021/01/15 00:53:02;;;;;;;2.87;1.40;;;8.50;99.90;;;;;;4809024;29;20220;-84
2021/01/15 00:55:32;;;;;;;4.90;1.70;;;8.40;99.90;;;;;;4808635;29;20312;-83
2021/01/15 00:58:03;;;;;;;4.27;2.00;;;8.30;99.90;;;;;;4808267;29;20247;-83
2021/01/15 01:00:35;;;;;;;5.40;2.60;;;8.20;99.90;;;;;;4826528;29;20224;-83
2021/01/15 01:03:05;;;;;;;7.53;2.20;;;8.10;99.90;;;;;;4826310;29;20208;-84
2021/01/15 01:05:37;;;;;;;4.20;2.50;;;8.00;99.90;;;;;;4826469;29;20200;-83
2021/01/15 01:08:07;;;;;;;3.73;2.20;;;7.90;99.90;;;;;;4825232;29;20246;-83
2021/01/15 01:10:38;;;;;;;3.20;2.30;;;7.80;99.90;;;;;;4826473;29;20738;-83
2021/01/15 01:13:08;;;;;;;4.80;2.03;;;7.70;99.90;;;;;;4841115;29;20212;-84
2021/01/15 01:15:37;;;;;;;3.93;2.43;;;7.60;99.90;;;;;;4844941;29;20370;-82
2021/01/15 01:18:07;;;;;;;4.40;2.20;;;7.60;99.90;;;;;;4828836;29;20216;-83
2021/01/15 01:20:39;;;;;;;5.37;1.63;;;7.50;99.90;;;;;;4825933;29;20743;-83
2021/01/15 01:23:09;;;;;;;4.97;3.20;;;7.40;99.90;;;;;;4826569;29;20281;-85
2021/01/15 01:25:39;;;;;;;4.10;2.70;;;7.40;99.90;;;;;;4826737;29;20626;-86
2021/01/15 01:28:09;;;;;;;5.03;2.37;;;7.40;99.90;;;;;;4826047;29;20245;-85
2021/01/15 01:30:38;;;;;;;5.33;2.47;;;7.40;99.90;;;;;;4808228;29;20225;-82
2021/01/15 01:33:08;;;;;;;8.23;2.80;;;7.40;99.90;;;;;;4808682;29;20209;-85
2021/01/15 01:35:39;;;;;;;4.63;2.30;;;7.30;99.90;;;;;;4808577;29;20226;-84
2021/01/15 01:38:08;;;;;;;6.20;2.50;;;7.30;99.90;;;;;;4807204;29;20208;-84
2021/01/15 01:40:38;;;;;;;5.27;2.10;;;7.20;99.90;;;;;;4819116;29;20604;-83
2021/01/15 01:43:08;;;;;;;4.73;2.00;;;7.10;99.90;;;;;;4819096;29;20290;-85
2021/01/15 01:45:38;;;;;;;3.27;1.90;;;7.10;99.90;;;;;;4815466;29;20256;-84
2021/01/15 01:48:09;;;;;;;5.20;2.03;;;7.10;99.90;;;;;;4825324;29;21137;-86
2021/01/15 01:50:43;;;;;;;5.80;2.57;;;7.00;99.90;;;;;;4828044;29;20250;-92
2021/01/15 01:53:17;;;;;;;5.43;2.17;;;7.10;99.90;;;;;;4832066;29;20199;-96
2021/01/15 01:55:58;;;;;;;5.40;2.07;;;7.00;99.90;;;;;;4829917;29;20285;-94
2021/01/15 01:58:29;;;;;;;4.50;1.97;;;7.10;99.90;;;;;;4828647;29;20213;-92
2021/01/15 02:01:05;;;;;;;4.50;2.10;;;7.10;99.90;;;;;;4827231;29;20255;-90
2021/01/15 02:03:36;;;;;;;7.23;1.80;;;7.10;99.90;;;;;;4831720;29;20219;-84
2021/01/15 02:06:09;;;;;;;3.47;1.70;;;7.10;99.90;;;;;;4821985;29;20257;-87
2021/01/15 02:08:39;;;;;;;5.80;1.90;;;7.10;99.90;;;;;;4825512;29;20238;-85
2021/01/15 02:11:17;;;;;;;6.17;2.30;;;7.20;99.90;;;;;;4820401;29;20279;-84
2021/01/15 02:13:59;;;;;;;7.53;2.50;;;7.10;99.90;;;;;;4822038;29;20218;-84
2021/01/15 02:16:35;;;;;;;4.60;2.67;;;7.20;99.90;;;;;;4822523;29;20673;-84
2021/01/15 02:19:34;;;;;;;4.37;2.30;;;7.30;99.90;;;;;;4823611;29;20207;-85
2021/01/15 02:22:37;;;;;;;3.60;2.20;;;7.30;99.90;;;;;;4820250;29;20212;-89
2021/01/15 02:25:35;;;;;;;3.97;2.20;;;7.20;99.90;;;;;;4822423;29;20215;-89
2021/01/15 02:28:50;;;;;;;4.10;1.70;;;7.10;99.90;;;;;;4826077;29;20284;-89
2021/01/15 02:32:11;;;;;;;3.90;1.93;;;7.00;99.90;;;;;;4837556;29;20221;-88
2021/01/15 02:35:15;;;;;;;2.87;1.70;;;6.90;99.90;;;;;;4802872;29;20209;-87
2021/01/15 02:38:20;;;;;;;3.90;1.33;;;6.80;99.90;;;;;;4843628;29;20230;-89
2021/01/15 02:41:26;;;;;;;4.20;2.10;;;6.80;99.90;;;;;;4827983;29;20208;-88
2021/01/15 02:44:04;;;;;;;6.37;2.43;;;6.80;99.90;;;;;;4839858;29;20241;-90
2021/01/15 02:46:45;;;;;;;4.00;2.00;;;6.80;99.90;;;;;;4836293;29;20220;-90
2021/01/15 02:49:18;;;;;;;5.37;1.73;;;6.90;99.90;;;;;;4830371;29;20271;-90
2021/01/15 02:51:52;;;;;;;2.87;2.20;;;6.90;99.90;;;;;;4838609;29;20204;-92
2021/01/15 02:54:22;;;;;;;4.03;2.07;;;7.00;99.90;;;;;;4835225;29;20213;-92
2021/01/15 02:56:53;;;;;;;5.80;2.47;;;7.10;99.90;;;;;;4847942;29;20229;-91
2021/01/15 02:59:26;;;;;;;4.47;2.20;;;7.20;99.90;;;;;;4830080;29;20288;-91
2021/01/15 03:02:06;;;;;;;5.67;2.40;;;7.30;99.90;;;;;;4836196;29;20280;-89
2021/01/15 03:04:43;;;;;;;6.20;2.37;;;7.40;99.90;;;;;;4838249;29;20208;-88
2021/01/15 03:07:18;;;;;;;5.47;2.40;;;7.50;99.90;;;;;;4837985;29;20216;-87
2021/01/15 03:09:52;;;;;;;4.67;2.37;;;7.80;99.90;;;;;;4842108;29;20240;-86
2021/01/15 03:12:27;;;;;;;6.00;3.13;;;8.10;99.90;;;;;;4844813;29;20207;-88
2021/01/15 03:14:59;;;;;;;5.57;2.80;;;8.10;99.90;;;;;;4827009;29;20282;-88
2021/01/15 03:17:43;;;;;;;5.63;2.63;;;8.10;99.90;;;;;;4834700;29;20213;-87
2021/01/15 03:20:14;;;;;;;5.43;3.17;;;8.10;99.90;;;;;;4844418;29;20219;-89
2021/01/15 03:22:47;;;;;;;5.20;3.27;;;8.10;99.90;;;;;;4842212;29;20224;-89
2021/01/15 03:25:20;;;;;;;7.20;3.50;;;8.10;99.90;;;;;;4836645;29;20344;-87
2021/01/15 03:27:52;;;;;;;5.00;4.47;;;8.10;99.90;;;;;;4832495;29;20221;-88
2021/01/15 03:30:31;;;;;;;6.00;4.47;;;8.10;99.90;;;;;;4827852;29;20209;-89
2021/01/15 03:33:07;;;;;;;8.07;4.30;;;8.10;99.90;;;;;;4831204;29;20219;-89
2021/01/15 03:35:39;;;;;;;7.27;3.60;;;8.20;99.90;;;;;;4832365;29;20208;-87
2021/01/15 03:38:32;;;;;;;8.03;2.93;;;8.20;99.90;;;;;;4829726;29;20243;-87
2021/01/15 03:41:06;;;;;;;5.73;2.40;;;8.20;99.90;;;;;;4834177;29;20355;-89
2021/01/15 03:43:40;;;;;;;4.37;2.03;;;8.20;99.90;;;;;;4833072;29;20211;-88
2021/01/15 03:46:18;;;;;;;2.83;2.00;;;8.50;99.90;;;;;;4833937;29;20218;-87
2021/01/15 03:51:40;;;;;;;5.93;2.90;;;8.70;99.90;;;;;;4823173;29;20215;-90
2021/01/15 03:54:14;;;;;;;6.40;2.30;;;8.70;99.90;;;;;;4838843;29;20372;-88
2021/01/15 03:56:48;;;;;;;5.40;2.50;;;8.70;99.90;;;;;;4833627;29;20226;-91
2021/01/15 03:59:20;;;;;;;5.03;2.20;;;8.70;99.90;;;;;;4832019;29;20218;-89
2021/01/15 04:01:58;;;;;;;3.70;2.30;;;8.60;99.90;;;;;;4833290;29;20838;-90
2021/01/15 04:04:30;;;;;;;4.60;2.17;;;8.60;99.90;;;;;;4831235;29;20284;-89
2021/01/15 04:07:16;;;;;;;6.93;2.40;;;8.50;99.90;;;;;;4836432;29;20203;-91
2021/01/15 04:10:09;;;;;;;6.47;2.77;;;8.50;99.90;;;;;;4827131;29;20686;-89
2021/01/15 04:12:59;;;;;;;4.80;2.27;;;8.50;99.90;;;;;;4834267;29;20207;-90
2021/01/15 04:15:30;;;;;;;6.07;2.50;;;8.60;99.90;;;;;;4495052;29;10000395;-90
2021/01/15 04:20:47;;;;;;;5.60;2.50;;;8.60;99.90;;;;;;4833925;29;20211;-91
2021/01/15 04:23:19;;;;;;;6.07;2.97;;;8.70;99.90;;;;;;4834862;29;20212;-91
2021/01/15 04:26:07;;;;;;;6.77;3.67;;;8.60;99.90;;;;;;4827442;29;20205;-89
2021/01/15 04:28:49;;;;;;;8.70;4.60;;;8.60;99.90;;;;;;4829831;29;20243;-90
2021/01/15 04:31:21;;;;;;;6.80;3.63;;;8.60;99.90;;;;;;4838635;29;20235;-89
2021/01/15 04:33:55;;;;;;;7.20;4.30;;;8.70;99.90;;;;;;4837349;29;20215;-90
2021/01/15 04:36:30;;;;;;;6.83;3.90;;;8.70;99.90;;;;;;4832385;29;20215;-90
2021/01/15 04:39:03;;;;;;;4.57;2.80;;;8.70;99.90;;;;;;4835992;29;20691;-89
2021/01/15 04:41:37;;;;;;;5.07;3.03;;;8.70;99.90;;;;;;4826882;29;20215;-91
2021/01/15 04:44:07;;;;;;;3.93;2.50;;;8.70;99.90;;;;;;4837402;29;20196;-90
2021/01/15 04:46:42;;;;;;;5.97;3.37;;;8.60;99.90;;;;;;4832693;29;20266;-89
2021/01/15 04:49:17;;;;;;;6.43;3.60;;;8.60;99.90;;;;;;4837181;29;20244;-88
2021/01/15 04:51:58;;;;;;;5.53;3.50;;;8.60;99.90;;;;;;4841530;29;20200;-90
2021/01/15 04:54:38;;;;;;;7.57;3.10;;;8.70;99.90;;;;;;4843576;29;20200;-90
2021/01/15 04:57:13;;;;;;;4.57;2.70;;;8.70;99.90;;;;;;4844790;29;20216;-90
2021/01/15 04:59:46;;;;;;;3.83;2.50;;;8.60;99.90;;;;;;4836155;29;20338;-89
2021/01/15 05:02:19;;;;;;;4.77;2.47;;;8.60;99.90;;;;;;4835654;29;20208;-91
2021/01/15 05:04:49;;;;;;;5.63;2.90;;;8.60;99.90;;;;;;4837667;29;20219;-89
2021/01/15 05:07:25;;;;;;;6.37;2.60;;;8.60;99.90;;;;;;4836239;29;20200;-90
2021/01/15 05:09:59;;;;;;;6.43;2.53;;;8.60;99.90;;;;;;4837316;29;20674;-90
2021/01/15 05:12:32;;;;;;;6.00;2.40;;;8.60;99.90;;;;;;4839009;29;20215;-90
2021/01/15 05:15:03;;;;;;;6.03;2.87;;;8.50;99.90;;;;;;4839290;29;20224;-91
2021/01/15 05:17:41;;;;;;;6.77;2.87;;;8.60;99.90;;;;;;4832050;29;20270;-89
2021/01/15 05:20:15;;;;;;;4.07;2.83;;;8.50;99.90;;;;;;4837968;29;20208;-89
2021/01/15 05:22:54;;;;;;;5.83;3.50;;;8.50;99.90;;;;;;4837668;29;20232;-89
2021/01/15 05:25:26;;;;;;;7.17;3.87;;;8.40;99.90;;;;;;4823520;29;20212;-91
2021/01/15 05:28:00;;;;;;;6.87;3.60;;;8.40;99.90;;;;;;4835971;29;20212;-90
2021/01/15 05:30:31;;;;;;;6.03;3.30;;;8.40;99.90;;;;;;4837281;29;20212;-91
2021/01/15 05:33:14;;;;;;;6.27;2.87;;;8.60;99.90;;;;;;4837158;29;20232;-90
2021/01/15 05:35:50;;;;;;;5.07;2.87;;;8.60;99.90;;;;;;4830839;29;20230;-90
2021/01/15 05:38:22;;;;;;;7.83;3.43;;;8.60;99.90;;;;;;4836148;29;20275;-90
2021/01/15 05:40:59;;;;;;;6.47;3.27;;;8.60;99.90;;;;;;4835468;29;20217;-89
2021/01/15 05:43:37;;;;;;;5.90;3.20;;;8.60;99.90;;;;;;4837273;29;20231;-90
2021/01/15 05:46:17;;;;;;;5.47;2.67;;;8.80;99.90;;;;;;4839519;29;20212;-91
2021/01/15 05:48:53;;;;;;;5.13;2.73;;;8.80;99.90;;;;;;4839220;29;20266;-89
2021/01/15 05:51:34;;;;;;;5.27;3.17;;;8.80;99.90;;;;;;4842206;29;20218;-90
2021/01/15 05:54:09;;;;;;;8.20;3.00;;;8.90;99.90;;;;;;4834963;29;20203;-90
2021/01/15 05:56:46;;;;;;;5.37;2.70;;;9.00;99.90;;;;;;4821362;29;20220;-91
2021/01/15 05:59:19;;;;;;;6.57;2.40;;;9.10;99.90;;;;;;4839400;29;20213;-91
2021/01/15 06:01:55;;;;;;;3.87;2.33;;;9.30;99.90;;;;;;4832565;29;20661;-92
2021/01/15 06:04:39;;;;;;;3.57;2.33;;;9.40;99.90;;;;;;4836328;29;20265;-91
2021/01/15 06:07:27;;;;;;;4.60;2.43;;;9.60;99.90;;;;;;4823023;29;20238;-92
2021/01/15 06:10:03;;;;;;;5.07;2.23;;;9.70;99.90;;;;;;4832036;29;20228;-91
2021/01/15 06:12:44;;;;;;;4.17;2.10;;;9.70;99.90;;;;;;4833450;29;20216;-90
2021/01/15 06:15:18;;;;;;;3.63;2.30;;;9.70;99.90;;;;;;4832053;29;20355;-89
2021/01/15 06:17:53;;;;;;;4.67;2.50;;;9.60;99.90;;;;;;4831356;29;20297;-90
2021/01/15 06:20:28;;;;;;;4.17;2.40;;;9.50;99.90;;;;;;4834055;29;20207;-90
2021/01/15 06:23:04;;;;;;;5.00;2.60;;;9.50;99.90;;;;;;4834854;29;20228;-89
2021/01/15 06:25:37;;;;;;;4.93;2.23;;;9.40;99.90;;;;;;4832623;29;20300;-90
2021/01/15 06:28:09;;;;;;;5.53;2.70;;;9.30;99.90;;;;;;4830997;29;20224;-90
2021/01/15 06:30:42;;;;;;;4.40;2.40;;;9.30;99.90;;;;;;4835618;29;20253;-89
2021/01/15 06:33:14;;;;;;;3.97;2.40;;;9.40;99.90;;;;;;4833781;29;20328;-89
2021/01/15 06:35:50;;;;;;;5.53;2.27;;;9.50;99.90;;;;;;4835249;29;20302;-88
2021/01/15 06:38:28;;;;;;;4.37;2.50;;;9.50;99.90;;;;;;4833605;29;20362;-90
2021/01/15 06:41:00;;;;;;;5.63;2.30;;;9.50;99.90;;;;;;4834098;29;20212;-90
2021/01/15 06:43:31;;;;;;;6.43;2.40;;;9.50;99.90;;;;;;4833724;29;20269;-91
2021/01/15 06:46:06;;;;;;;4.03;2.00;;;9.50;99.90;;;;;;4834356;29;20300;-91
2021/01/15 06:48:38;;;;;;;6.23;2.30;;;9.50;99.90;;;;;;4831535;29;20312;-90
2021/01/15 06:51:14;;;;;;;4.87;2.03;;;9.50;99.90;;;;;;4832721;29;20208;-90
2021/01/15 06:54:04;;;;;;;4.53;2.10;;;9.50;99.90;;;;;;4837750;29;20212;-90
2021/01/15 06:56:51;;;;;;;4.07;2.40;;;9.50;99.90;;;;;;4835669;29;20207;-91
2021/01/15 06:59:35;;;;;;;4.13;1.30;;;9.40;99.90;;;;;;4834240;29;20237;-90
2021/01/15 07:02:49;;;;;;;2.93;1.30;;;9.30;99.90;;;;;;4839475;29;20208;-90
2021/01/15 07:05:27;;;;;;;3.70;1.80;;;9.20;99.90;;;;;;4824090;29;20209;-91
2021/01/15 07:08:04;;;;;;;3.80;1.73;;;9.20;99.90;;;;;;4831485;29;20235;-90
2021/01/15 07:10:36;;;;;;;3.43;1.47;;;9.20;99.90;;;;;;4840454;29;20262;-90
2021/01/15 07:13:11;;;;;;;4.73;1.90;;;9.00;99.90;;;;;;4838845;29;20208;-90
2021/01/15 07:16:10;;;;;;;5.77;1.87;;;9.00;99.90;;;;;;4835797;29;20220;-91
2021/01/15 07:19:45;;;;;;;2.87;1.87;;;8.90;99.90;;;;;;4839223;29;20212;-92
2021/01/15 07:22:36;;;;;;;3.90;2.13;;;8.80;99.90;;;;;;4823913;29;20288;-90
2021/01/15 07:25:10;;;;;;;5.10;1.97;;;8.70;99.90;;;;;;4814312;29;20288;-89
2021/01/15 07:27:43;;;;;;;3.50;1.90;;;8.60;99.90;;;;;;4824829;29;20216;-90
2021/01/15 07:30:20;;;;;;;7.30;2.57;;;8.50;99.90;;;;;;4829236;29;20317;-88
2021/01/15 07:32:54;;;;;;;7.33;2.50;;;8.40;99.90;;;;;;4831160;29;20259;-89
2021/01/15 07:35:29;;;;;;;6.93;2.30;;;8.40;99.90;;;;;;4827191;29;20642;-89
2021/01/15 07:38:12;;;;;;;4.67;1.93;;;8.30;99.90;;;;;;4833311;29;20212;-90
2021/01/15 07:40:44;;;;;;;5.10;2.27;;;8.30;99.90;;;;;;4837104;29;20350;-89
2021/01/15 07:43:30;;;;;;;3.17;1.60;;;8.20;99.90;;;;;;4833420;29;20211;-89
2021/01/15 07:46:06;;;;;;;2.40;1.50;;;8.10;99.90;;;;;;4828224;29;20211;-90
2021/01/15 07:48:40;;;;;;;4.30;1.50;;;8.10;99.90;;;;;;4826210;29;20235;-90
2021/01/15 07:51:14;;;;;;;2.23;1.70;;;8.10;99.90;;;;;;4825330;29;20208;-90
2021/01/15 07:53:46;;;;;;;9.43;1.90;;;8.00;99.90;;;;;;4828659;29;20223;-90
2021/01/15 07:56:27;;;;;;;4.87;1.50;;;8.00;99.90;;;;;;4829105;29;20211;-90
2021/01/15 07:58:58;;;;;;;2.77;1.70;;;7.90;99.90;;;;;;4830921;29;20208;-89
2021/01/15 08:01:29;;;;;;;10.43;1.80;;;7.90;99.90;;;;;;4827201;29;20216;-90
2021/01/15 08:04:00;;;;;;;4.20;1.37;;;7.90;99.90;;;;;;4828430;29;20219;-90
2021/01/15 08:06:55;;;;;;;3.93;1.63;;;7.90;99.90;;;;;;4826496;29;20239;-90
2021/01/15 08:09:25;;;;;;;4.03;1.60;;;7.90;99.90;;;;;;4824424;29;20387;-90
2021/01/15 08:11:59;;;;;;;3.43;1.50;;;7.90;99.90;;;;;;4836878;29;20245;-90
2021/01/15 08:14:33;;;;;;;2.63;1.40;;;7.90;99.90;;;;;;4834971;29;20550;-90
2021/01/15 08:17:08;;;;;;;3.33;1.40;;;7.80;99.90;;;;;;4832545;29;20309;-90
2021/01/15 08:19:40;;;;;;;5.57;2.10;;;7.80;99.90;;;;;;4821163;29;20208;-90
2021/01/15 08:22:16;;;;;;;2.70;1.60;;;7.80;99.90;;;;;;4830748;29;20269;-89
2021/01/15 08:27:37;;;;;;;5.83;2.13;;;7.80;99.90;;;;;;4819774;29;20212;-90
2021/01/15 08:30:08;;;;;;;2.63;1.50;;;7.80;99.90;;;;;;4826020;29;20335;-90
2021/01/15 08:32:42;;;;;;;5.53;1.97;;;7.70;99.90;;;;;;4824884;29;20216;-90
2021/01/15 08:35:15;;;;;;;6.17;2.03;;;7.70;99.90;;;;;;4826340;29;20658;-91
2021/01/15 08:38:03;;;;;;;5.53;1.73;;;7.60;99.90;;;;;;4827163;29;20213;-89
2021/01/15 08:40:38;;;;;;;3.37;1.30;;;7.60;99.90;;;;;;4831755;29;20224;-88
2021/01/15 08:43:09;;;;;;;1.97;1.20;;;7.60;99.90;;;;;;4831449;29;20238;-88
2021/01/15 08:45:42;;;;;;;4.30;1.60;;;7.60;99.90;;;;;;4831227;29;20223;-89
2021/01/15 08:48:15;;;;;;;2.63;1.67;;;7.50;99.90;;;;;;4830748;29;20291;-89
2021/01/15 08:50:46;;;;;;;3.80;1.70;;;7.50;99.90;;;;;;4831166;29;20232;-90
2021/01/15 08:53:43;;;;;;;1.93;1.50;;;7.50;99.90;;;;;;4831867;29;20299;-90
2021/01/15 08:56:15;;;;;;;6.23;2.03;;;7.40;99.90;;;;;;4837042;29;20204;-90
2021/01/15 08:58:54;;;;;;;2.80;1.73;;;7.40;99.90;;;;;;4842362;29;20312;-89
2021/01/15 09:01:28;;;;;;;3.90;1.50;;;7.30;99.90;;;;;;4845450;29;20216;-89
2021/01/15 09:04:02;;;;;;;7.60;1.90;;;7.30;99.90;;;;;;4843119;29;20195;-89
2021/01/15 09:06:34;;;;;;;4.17;1.53;;;7.30;99.90;;;;;;4845315;29;20216;-90
2021/01/15 09:09:08;;;;;;;4.90;1.70;;;7.30;99.90;;;;;;4844431;29;20223;-90
2021/01/15 09:11:40;;;;;;;3.47;1.70;;;7.20;99.90;;;;;;4847010;29;20208;-90
2021/01/15 09:14:13;;;;;;;3.43;1.60;;;7.20;99.90;;;;;;4849546;29;20200;-90
2021/01/15 09:16:47;;;;;;;3.90;1.70;;;7.20;99.90;;;;;;4844797;29;20277;-90
2021/01/15 09:19:18;;;;;;;4.57;2.13;;;7.20;99.90;;;;;;4846470;29;20221;-90
2021/01/15 09:21:52;;;;;;;2.93;1.80;;;7.20;99.90;;;;;;4848418;29;20203;-89
2021/01/15 09:24:25;;;;;;;3.20;1.93;;;7.10;99.90;;;;;;4846192;29;20212;-89
2021/01/15 09:27:00;;;;;;;3.93;1.80;;;7.10;99.90;;;;;;4846810;29;20247;-88
2021/01/15 09:29:32;;;;;;;3.63;1.77;;;7.10;99.90;;;;;;4840526;29;20249;-89
2021/01/15 09:32:04;;;;;;;6.43;1.80;;;7.20;99.90;;;;;;4842438;29;20265;-90
2021/01/15 09:34:35;;;;;;;7.40;1.80;;;7.20;99.90;;;;;;4840671;29;20254;-89
2021/01/15 09:37:07;;;;;;;3.93;1.60;;;7.20;99.90;;;;;;4838218;29;20249;-89
2021/01/15 09:39:39;;;;;;;3.10;1.40;;;7.20;99.90;;;;;;4834783;29;20319;-89
2021/01/15 09:42:13;;;;;;;4.17;1.80;;;7.20;99.90;;;;;;4817934;29;20229;-89
2021/01/15 09:44:44;;;;;;;4.23;1.60;;;7.30;99.90;;;;;;4831114;29;20220;-90
2021/01/15 09:47:15;;;;;;;3.70;1.60;;;7.30;99.90;;;;;;4833296;29;20218;-89
2021/01/15 09:49:47;;;;;;;5.67;1.73;;;7.30;99.90;;;;;;4832460;29;20232;-90
2021/01/15 09:52:18;;;;;;;3.83;1.80;;;7.30;99.90;;;;;;4833250;29;20206;-89
2021/01/15 09:54:51;;;;;;;3.23;2.00;;;7.30;99.90;;;;;;4832305;29;20207;-90
2021/01/15 09:57:22;;;;;;;4.17;2.10;;;7.40;99.90;;;;;;4832510;29;20215;-89
2021/01/15 09:59:55;;;;;;;3.10;1.70;;;7.40;99.90;;;;;;4837118;29;20257;-88
2021/01/15 10:02:26;;;;;;;3.83;1.83;;;7.40;99.90;;;;;;4832150;29;20218;-90
2021/01/15 10:04:58;;;;;;;3.73;2.03;;;7.40;99.90;;;;;;4831967;29;20678;-90
2021/01/15 10:07:28;;;;;;;2.50;1.80;;;7.40;99.90;;;;;;4831108;29;20230;-89
2021/01/15 10:10:00;;;;;;;2.33;1.70;;;7.40;99.90;;;;;;4831985;29;20717;-89
2021/01/15 10:12:32;;;;;;;3.77;1.90;;;7.40;99.90;;;;;;4831848;29;20212;-89
2021/01/15 10:15:03;;;;;;;2.67;1.87;;;7.50;99.90;;;;;;4828307;29;20317;-89
2021/01/15 10:18:02;;;;;;;6.03;1.90;;;7.50;99.90;;;;;;4844672;29;20202;-91
2021/01/15 10:20:34;;;;;;;4.87;2.10;;;7.50;99.90;;;;;;4830843;29;20223;-90
2021/01/15 10:23:05;;;;;;;5.20;2.03;;;7.50;99.90;;;;;;4831954;29;20214;-89
2021/01/15 10:25:37;;;;;;;4.27;1.80;;;7.50;99.90;;;;;;4829610;29;20220;-89
2021/01/15 10:28:08;;;;;;;3.23;1.90;;;7.50;99.90;;;;;;4830453;29;20217;-89
2021/01/15 10:30:39;;;;;;;3.07;1.80;;;7.60;99.90;;;;;;4831380;29;20282;-89
2021/01/15 10:33:09;;;;;;;3.40;1.70;;;7.70;99.90;;;;;;4830160;29;20215;-88
2021/01/15 10:35:40;;;;;;;3.23;1.80;;;7.60;99.90;;;;;;4827132;29;20216;-89
2021/01/15 10:38:11;;;;;;;3.37;1.73;;;7.70;99.90;;;;;;4830447;29;20222;-88
2021/01/15 10:40:47;;;;;;;3.57;1.73;;;7.70;99.90;;;;;;4830243;29;20653;-88
2021/01/15 10:43:18;;;;;;;2.90;1.60;;;7.70;99.90;;;;;;4829763;29;20226;-89
2021/01/15 10:45:50;;;;;;;2.57;1.73;;;7.70;99.90;;;;;;4829146;29;20214;-89
2021/01/15 10:48:21;;;;;;;2.17;1.37;;;7.70;99.90;;;;;;4827904;29;20204;-89
2021/01/15 10:50:52;;;;;;;4.93;1.50;;;7.70;99.90;;;;;;4830688;29;20635;-90
2021/01/15 10:53:22;;;;;;;3.87;1.43;;;7.80;99.90;;;;;;4835915;29;20215;-89
2021/01/15 10:55:55;;;;;;;3.60;1.40;;;7.80;99.90;;;;;;4830902;29;20223;-90
2021/01/15 10:58:27;;;;;;;4.40;1.60;;;7.80;99.90;;;;;;4831026;29;20211;-89
2021/01/15 11:00:57;;;;;;;3.70;1.20;;;7.90;99.90;;;;;;4831907;29;20272;-90
2021/01/15 11:03:28;;;;;;;2.90;1.23;;;7.90;99.90;;;;;;4832006;29;20607;-89
2021/01/15 11:05:59;;;;;;;2.80;1.40;;;8.00;99.90;;;;;;4832312;29;20215;-90
2021/01/15 11:08:32;;;;;;;2.90;1.10;;;8.00;99.90;;;;;;4830876;29;20276;-88
2021/01/15 11:11:07;;;;;;;2.90;0.87;;;8.10;99.90;;;;;;4830311;29;20397;-90
2021/01/15 11:13:39;;;;;;;3.23;1.20;;;8.10;99.90;;;;;;4832103;29;20215;-89
2021/01/15 11:16:16;;;;;;;2.33;1.30;;;8.10;99.90;;;;;;4832289;29;20280;-89
2021/01/15 11:18:47;;;;;;;2.13;1.27;;;8.10;99.90;;;;;;4832165;29;20681;-90
2021/01/15 11:21:25;;;;;;;3.40;1.30;;;8.10;99.90;;;;;;4832603;29;20305;-89
2021/01/15 11:23:56;;;;;;;2.87;1.13;;;8.10;99.90;;;;;;4833631;29;20310;-89
2021/01/15 11:26:30;;;;;;;1.97;1.07;;;8.10;99.90;;;;;;4832701;29;20212;-89
2021/01/15 11:29:04;;;;;;;3.87;1.07;;;8.20;99.90;;;;;;4831200;29;20279;-89
2021/01/15 11:31:36;;;;;;;3.30;1.00;;;8.30;99.90;;;;;;4831484;29;20211;-88
2021/01/15 11:34:09;;;;;;;1.70;1.40;;;8.30;99.90;;;;;;4832968;29;20208;-89
2021/01/15 11:36:40;;;;;;;2.60;1.30;;;8.40;99.90;;;;;;4836302;29;20731;-89
2021/01/15 11:39:13;;;;;;;1.40;1.00;;;8.50;99.90;;;;;;4834234;29;20225;-89
2021/01/15 11:41:45;;;;;;;3.77;0.90;;;8.50;99.90;;;;;;4831735;29;20196;-90
2021/01/15 11:44:16;;;;;;;3.77;1.20;;;8.50;99.90;;;;;;4843165;29;20206;-90
2021/01/15 11:46:48;;;;;;;3.03;1.30;;;8.50;99.90;;;;;;4839728;29;20214;-89
2021/01/15 11:49:30;;;;;;;1.90;1.20;;;8.60;99.90;;;;;;4835945;29;20228;-88
2021/01/15 11:52:02;;;;;;;1.63;1.00;;;8.60;99.90;;;;;;4830606;29;20205;-89
2021/01/15 11:54:32;;;;;;;2.80;1.17;;;8.60;99.90;;;;;;4831546;29;20227;-89
2021/01/15 11:57:04;;;;;;;3.10;1.07;;;8.70;99.90;;;;;;4830354;29;20252;-88
2021/01/15 11:59:35;;;;;;;1.50;1.10;;;8.70;99.90;;;;;;4830859;29;20276;-90
2021/01/15 12:02:06;;;;;;;2.20;0.93;;;8.70;99.90;;;;;;4835355;29;20224;-89
2021/01/15 12:04:37;;;;;;;2.93;0.90;;;8.70;99.90;;;;;;4831444;29;20258;-89
2021/01/15 12:07:07;;;;;;;3.13;1.40;;;8.70;99.90;;;;;;4828920;29;20700;-89
2021/01/15 12:09:38;;;;;;;2.73;1.03;;;8.70;99.90;;;;;;4828634;29;20255;-88
2021/01/15 12:12:12;;;;;;;1.67;1.17;;;8.80;99.90;;;;;;4831202;29;20279;-89
2021/01/15 12:14:43;;;;;;;2.10;1.37;;;8.80;99.90;;;;;;4832938;29;20303;-89
2021/01/15 12:17:15;;;;;;;2.43;1.50;;;8.80;99.90;;;;;;4834435;29;20215;-90
2021/01/15 12:19:46;;;;;;;2.23;1.30;;;8.80;99.90;;;;;;4830220;29;20280;-90
2021/01/15 12:22:17;;;;;;;2.03;1.50;;;8.80;99.90;;;;;;4832977;29;20246;-90
2021/01/15 12:24:47;;;;;;;2.97;1.73;;;8.90;99.90;;;;;;4834325;29;20215;-90
2021/01/15 12:27:19;;;;;;;4.77;2.90;;;8.90;99.90;;;;;;4831751;29;20250;-89
2021/01/15 12:29:52;;;;;;;6.30;4.63;;;8.90;99.90;;;;;;4835721;29;20247;-90
2021/01/15 12:32:22;;;;;;;7.27;4.90;;;8.80;99.90;;;;;;4832068;29;20281;-89
2021/01/15 12:34:52;;;;;;;6.70;4.73;;;8.70;99.90;;;;;;4835180;29;20223;-89
2021/01/15 12:37:25;;;;;;;7.20;5.37;;;8.50;99.90;;;;;;4832884;29;20240;-89
2021/01/15 12:40:02;;;;;;;7.37;5.50;;;8.50;99.90;;;;;;4833468;29;20227;-89
2021/01/15 12:42:34;;;;;;;6.30;4.33;;;8.40;99.90;;;;;;4836477;29;20284;-90
2021/01/15 12:45:06;;;;;;;4.70;3.67;;;8.40;99.90;;;;;;4834599;29;20251;-89
2021/01/15 12:47:41;;;;;;;5.27;2.90;;;8.30;99.90;;;;;;4829632;29;20227;-87
2021/01/15 12:50:13;;;;;;;5.33;2.80;;;8.20;99.90;;;;;;4831011;29;20243;-89
2021/01/15 12:52:46;;;;;;;4.27;2.60;;;8.10;99.90;;;;;;4833812;29;20215;-90
2021/01/15 12:55:22;;;;;;;2.70;2.10;;;8.10;99.90;;;;;;4831036;29;20211;-89
2021/01/15 12:57:54;;;;;;;3.97;2.20;;;8.10;99.90;;;;;;4832154;29;20275;-90
2021/01/15 13:00:26;;;;;;;3.77;2.50;;;8.10;99.90;;;;;;4826681;29;20216;-90
2021/01/15 13:02:59;;;;;;;5.07;2.40;;;8.00;99.90;;;;;;4822083;29;20213;-91
2021/01/15 13:05:31;;;;;;;2.53;2.00;;;8.00;99.90;;;;;;4834620;29;20617;-89
2021/01/15 13:08:01;;;;;;;3.27;2.20;;;8.00;99.90;;;;;;4832646;29;20235;-91
2021/01/15 13:10:33;;;;;;;3.20;2.27;;;8.10;99.90;;;;;;4832836;29;20303;-90
2021/01/15 13:13:06;;;;;;;3.60;2.10;;;8.00;99.90;;;;;;4830751;29;20815;-90
2021/01/15 13:15:37;;;;;;;3.83;2.30;;;8.10;99.90;;;;;;4830896;29;20314;-91
2021/01/15 13:18:08;;;;;;;5.63;2.00;;;8.10;99.90;;;;;;4831541;29;20212;-89
2021/01/15 13:20:45;;;;;;;3.73;2.40;;;8.10;99.90;;;;;;4831896;29;20215;-89
2021/01/15 13:23:18;;;;;;;7.90;2.60;;;8.10;99.90;;;;;;4832049;29;20219;-90
2021/01/15 13:26:03;;;;;;;5.33;2.27;;;8.10;99.90;;;;;;4828765;29;20215;-90
2021/01/15 13:28:36;;;;;;;5.10;2.17;;;8.00;99.90;;;;;;4825741;29;20208;-88
2021/01/15 13:31:07;;;;;;;6.70;2.50;;;8.10;99.90;;;;;;4831978;29;20277;-89
2021/01/15 13:33:39;;;;;;;5.17;2.67;;;8.10;99.90;;;;;;4833051;29;20232;-91
2021/01/15 13:36:11;;;;;;;4.53;2.83;;;8.10;99.90;;;;;;4831596;29;20220;-91
2021/01/15 13:38:43;;;;;;;4.80;2.50;;;8.10;99.90;;;;;;4829597;29;20216;-90
2021/01/15 13:41:14;;;;;;;3.23;2.80;;;8.10;99.90;;;;;;4833871;29;20215;-90
2021/01/15 13:43:47;;;;;;;5.47;3.17;;;8.20;99.90;;;;;;4833256;29;20215;-90
2021/01/15 13:46:17;;;;;;;4.07;2.87;;;8.20;99.90;;;;;;4832203;29;20211;-89